Time;durP1;ratioP1;P1;durP2;ratioP2;P2;SDS_P1;SDS_P2;PMS_P1;PMS_P2;Temp;Humidity;BMP_temperature;BMP_pressure;BME280_temperature;BME280_humidity;BME280_pressure;Samples;Min_cycle;Max_cycle;Signal;HPM_P1;HPM_P2
2023/04/26 00:01:59;;;;;;;2.95;2.65;;;8.40;99.90;;;;;;5014056;28;20563;-68
2023/04/26 00:04:27;;;;;;;3.88;3.10;;;8.40;99.90;;;;;;4996386;28;20367;-68
2023/04/26 00:06:53;;;;;;;3.35;2.65;;;8.30;99.90;;;;;;5016668;28;20041;-68
2023/04/26 00:09:19;;;;;;;4.88;3.38;;;8.30;99.90;;;;;;5000027;28;20034;-69
2023/04/26 00:11:45;;;;;;;4.22;3.00;;;8.30;99.90;;;;;;5018293;28;20017;-68
2023/04/26 00:14:10;;;;;;;5.57;3.10;;;8.20;99.90;;;;;;5001602;28;20540;-69
2023/04/26 00:16:36;;;;;;;5.57;3.40;;;8.20;99.90;;;;;;5001463;28;20504;-68
2023/04/26 00:19:02;;;;;;;6.18;3.30;;;8.20;99.90;;;;;;5018943;28;20466;-68
2023/04/26 00:21:28;;;;;;;5.63;3.10;;;8.20;99.90;;;;;;5000769;28;20037;-68
2023/04/26 00:23:54;;;;;;;7.38;3.60;;;8.20;99.90;;;;;;5017843;28;20038;-68
2023/04/26 00:26:20;;;;;;;5.15;3.47;;;8.20;99.90;;;;;;4999809;28;20044;-68
2023/04/26 00:28:46;;;;;;;4.63;3.35;;;8.20;99.90;;;;;;5017415;28;20021;-68
2023/04/26 00:31:15;;;;;;;6.50;3.53;;;8.20;99.90;;;;;;5017007;28;20073;-68
2023/04/26 00:33:41;;;;;;;6.22;3.83;;;8.20;99.90;;;;;;5017110;28;20025;-68
2023/04/26 00:36:07;;;;;;;5.82;3.88;;;8.20;99.90;;;;;;4999368;28;20037;-68
2023/04/26 00:38:32;;;;;;;6.38;3.47;;;8.20;99.90;;;;;;5016785;28;20033;-69
2023/04/26 00:40:58;;;;;;;6.28;3.63;;;8.20;99.90;;;;;;5016747;28;20026;-68
2023/04/26 00:43:23;;;;;;;3.95;3.40;;;8.20;99.90;;;;;;5017188;28;20045;-68
2023/04/26 00:45:50;;;;;;;5.55;3.15;;;8.20;99.90;;;;;;5016991;28;20053;-68
2023/04/26 00:48:17;;;;;;;6.00;3.75;;;8.10;99.90;;;;;;5016685;28;20462;-68
2023/04/26 00:50:43;;;;;;;8.25;3.60;;;8.10;99.90;;;;;;5016650;28;20030;-68
2023/04/26 00:53:09;;;;;;;6.05;4.00;;;8.10;99.90;;;;;;4999241;28;20022;-68
2023/04/26 00:55:35;;;;;;;7.00;3.75;;;8.10;99.90;;;;;;4999649;28;20361;-68
2023/04/26 00:58:01;;;;;;;7.88;3.95;;;8.10;99.90;;;;;;4999008;28;20022;-68
2023/04/26 01:00:26;;;;;;;4.82;3.85;;;8.10;99.90;;;;;;5016180;28;20038;-68
2023/04/26 01:02:52;;;;;;;9.00;4.15;;;8.00;99.90;;;;;;4998777;28;20417;-68
2023/04/26 01:05:18;;;;;;;7.22;4.38;;;8.00;99.90;;;;;;5016240;28;20057;-69
2023/04/26 01:07:45;;;;;;;4.97;3.60;;;8.00;99.90;;;;;;5016755;28;20481;-68
2023/04/26 01:10:10;;;;;;;5.03;3.85;;;8.00;99.90;;;;;;5016172;28;20179;-68
2023/04/26 01:12:37;;;;;;;6.43;4.00;;;8.00;99.90;;;;;;5016197;28;20061;-68
2023/04/26 01:15:04;;;;;;;8.02;3.88;;;7.90;99.90;;;;;;5016136;28;20037;-68
2023/04/26 01:17:30;;;;;;;7.25;4.07;;;7.90;99.90;;;;;;5015814;28;20029;-68
2023/04/26 01:19:56;;;;;;;7.10;3.83;;;7.90;99.90;;;;;;5015653;28;20041;-68
2023/04/26 01:22:21;;;;;;;7.95;4.15;;;7.90;99.90;;;;;;4998321;28;20480;-68
2023/04/26 01:24:50;;;;;;;6.65;4.22;;;7.80;99.90;;;;;;5015884;28;20115;-68
2023/04/26 01:27:16;;;;;;;5.28;3.65;;;7.80;99.90;;;;;;5015881;28;20053;-68
2023/04/26 01:29:42;;;;;;;7.32;3.53;;;;;;;;;;5015816;28;20037;-68
2023/04/26 01:32:08;;;;;;;13.85;4.85;;;7.80;99.90;;;;;;5015727;28;20026;-68
2023/04/26 01:34:33;;;;;;;5.82;3.10;;;7.80;99.90;;;;;;5016081;28;20033;-68
2023/04/26 01:37:00;;;;;;;5.25;3.28;;;7.80;99.90;;;;;;4998132;28;20466;-68
2023/04/26 01:39:26;;;;;;;6.20;2.80;;;7.80;99.90;;;;;;5015321;28;20497;-68
2023/04/26 01:41:52;;;;;;;6.32;3.45;;;7.80;99.90;;;;;;5015650;28;20030;-68
2023/04/26 01:44:18;;;;;;;4.30;3.00;;;7.80;99.90;;;;;;5015528;28;20030;-69
2023/04/26 01:46:44;;;;;;;8.50;3.00;;;7.80;99.90;;;;;;5015662;28;20088;-68
2023/04/26 01:49:10;;;;;;;8.95;3.03;;;7.80;99.90;;;;;;5015706;28;20026;-69
2023/04/26 01:51:35;;;;;;;7.43;3.22;;;7.80;99.90;;;;;;5015767;28;20029;-69
2023/04/26 01:54:01;;;;;;;4.63;2.55;;;7.70;99.90;;;;;;5015534;28;20034;-68
2023/04/26 01:56:27;;;;;;;5.65;3.10;;;7.80;99.90;;;;;;5015309;28;20033;-68
2023/04/26 01:58:55;;;;;;;7.93;2.97;;;7.70;99.90;;;;;;5015592;28;20026;-68
2023/04/26 02:01:21;;;;;;;3.17;2.50;;;7.70;99.90;;;;;;4997566;28;20053;-68
2023/04/26 02:03:48;;;;;;;6.00;2.47;;;7.70;99.90;;;;;;5015233;28;20470;-68
2023/04/26 02:06:13;;;;;;;6.18;3.00;;;7.60;99.90;;;;;;5015246;28;20022;-68
2023/04/26 02:08:39;;;;;;;10.55;3.25;;;7.50;99.90;;;;;;4998264;28;20026;-68
2023/04/26 02:11:05;;;;;;;4.55;2.40;;;7.40;99.90;;;;;;5015525;28;20113;-68
2023/04/26 02:13:31;;;;;;;3.88;2.33;;;7.30;99.90;;;;;;5015110;28;20022;-69
2023/04/26 02:15:56;;;;;;;3.92;2.13;;;7.30;99.90;;;;;;5014957;28;20034;-68
2023/04/26 02:18:22;;;;;;;6.13;2.50;;;7.10;99.90;;;;;;4997927;28;20029;-68
2023/04/26 02:20:48;;;;;;;7.88;2.42;;;7.10;99.90;;;;;;5014755;28;20029;-68
2023/04/26 02:23:14;;;;;;;8.07;2.65;;;7.00;99.90;;;;;;5014874;28;20538;-68
2023/04/26 02:25:41;;;;;;;11.52;3.10;;;6.90;99.90;;;;;;4997076;28;20128;-68
2023/04/26 02:28:06;;;;;;;7.65;3.05;;;6.90;99.90;;;;;;5013945;28;20069;-68
2023/04/26 02:30:32;;;;;;;8.27;2.65;;;6.80;99.90;;;;;;5014677;28;20058;-68
2023/04/26 02:32:58;;;;;;;9.38;3.70;;;6.70;99.90;;;;;;5014645;28;20477;-69
2023/04/26 02:35:24;;;;;;;5.75;2.83;;;6.60;99.90;;;;;;4996699;28;20026;-68
2023/04/26 02:37:51;;;;;;;6.38;2.45;;;;;;;;;;5014777;28;20026;-68
2023/04/26 02:40:20;;;;;;;6.35;3.42;;;6.50;99.90;;;;;;5014975;28;20072;-68
2023/04/26 02:42:46;;;;;;;4.40;2.60;;;6.40;99.90;;;;;;5014572;28;20552;-68
2023/04/26 02:45:12;;;;;;;7.22;2.83;;;6.40;99.90;;;;;;5014285;28;20042;-68
2023/04/26 02:47:37;;;;;;;5.18;3.13;;;6.30;99.90;;;;;;4997125;28;20033;-68
2023/04/26 02:50:06;;;;;;;8.10;3.00;;;6.30;99.90;;;;;;5014352;28;20382;-68
2023/04/26 02:52:32;;;;;;;7.38;3.13;;;6.20;99.90;;;;;;5014379;28;20101;-68
2023/04/26 02:54:58;;;;;;;6.55;2.70;;;6.10;99.90;;;;;;4996762;28;20033;-69
2023/04/26 02:57:23;;;;;;;6.38;3.33;;;6.10;99.90;;;;;;4996738;28;20029;-68
2023/04/26 02:59:49;;;;;;;6.97;3.72;;;6.00;99.90;;;;;;5014074;28;20037;-68
2023/04/26 03:02:15;;;;;;;5.97;2.70;;;6.10;99.90;;;;;;5014415;28;20069;-68
2023/04/26 03:04:41;;;;;;;8.00;2.97;;;;;;;;;;5014220;28;20481;-68
2023/04/26 03:07:07;;;;;;;7.32;3.38;;;5.90;99.90;;;;;;4996531;28;20036;-68
2023/04/26 03:09:33;;;;;;;8.95;3.13;;;5.80;99.90;;;;;;5014450;28;20105;-68
2023/04/26 03:11:59;;;;;;;8.18;3.25;;;5.80;99.90;;;;;;5014086;28;20021;-69
2023/04/26 03:14:25;;;;;;;5.68;3.40;;;5.90;99.90;;;;;;4997294;28;20025;-69
2023/04/26 03:16:52;;;;;;;5.72;3.40;;;5.90;99.90;;;;;;5014054;28;20083;-68
2023/04/26 03:19:17;;;;;;;5.75;2.85;;;5.90;99.90;;;;;;4996373;28;20393;-68
2023/04/26 03:21:43;;;;;;;14.93;3.30;;;6.00;99.90;;;;;;4996961;28;20033;-68
2023/04/26 03:24:10;;;;;;;6.75;3.38;;;6.00;99.90;;;;;;4996375;28;20470;-68
2023/04/26 03:26:36;;;;;;;9.23;2.92;;;6.00;99.90;;;;;;5013939;28;20053;-68
2023/04/26 03:29:02;;;;;;;14.30;3.30;;;6.00;99.90;;;;;;5014176;28;20065;-68
2023/04/26 03:31:28;;;;;;;7.40;3.08;;;6.00;99.90;;;;;;4995960;28;20026;-68
2023/04/26 03:33:53;;;;;;;10.38;3.15;;;6.10;99.90;;;;;;4995985;28;20033;-68
2023/04/26 03:36:19;;;;;;;9.63;3.20;;;6.10;99.90;;;;;;5013820;28;20022;-68
2023/04/26 03:38:45;;;;;;;11.07;2.95;;;6.10;99.90;;;;;;4996028;28;20017;-68
2023/04/26 03:41:11;;;;;;;8.52;3.50;;;6.10;99.90;;;;;;5017635;28;20037;-68
2023/04/26 03:43:37;;;;;;;6.60;3.17;;;6.00;99.90;;;;;;5018081;28;20049;-68
2023/04/26 03:46:03;;;;;;;7.90;3.67;;;6.10;99.90;;;;;;5017180;28;20046;-68
2023/04/26 03:48:29;;;;;;;5.55;2.75;;;6.10;99.90;;;;;;5018095;28;20033;-68
2023/04/26 03:50:54;;;;;;;9.20;2.85;;;6.40;99.90;;;;;;5017596;28;20026;-69
2023/04/26 03:53:20;;;;;;;10.05;2.83;;;6.20;99.90;;;;;;4999980;28;20034;-71
2023/04/26 03:55:46;;;;;;;7.32;2.65;;;6.20;99.90;;;;;;5000012;28;20028;-70
2023/04/26 03:58:11;;;;;;;6.85;3.05;;;6.20;99.90;;;;;;4999806;28;20056;-69
2023/04/26 04:00:38;;;;;;;6.72;3.28;;;6.20;99.90;;;;;;5017850;28;20037;-71
2023/04/26 04:03:05;;;;;;;12.00;3.30;;;6.60;99.90;;;;;;5019272;28;20026;-70
2023/04/26 04:05:31;;;;;;;11.05;3.28;;;6.20;99.90;;;;;;5019446;28;20416;-71
2023/04/26 04:07:57;;;;;;;5.72;3.08;;;6.20;99.90;;;;;;5018647;28;20029;-68
2023/04/26 04:10:23;;;;;;;7.72;3.47;;;6.20;99.90;;;;;;5017594;28;20112;-67
2023/04/26 04:12:50;;;;;;;8.20;2.50;;;6.20;99.90;;;;;;5017330;28;20026;-67
2023/04/26 04:15:16;;;;;;;7.72;2.88;;;6.20;99.90;;;;;;5017173;28;20037;-67
2023/04/26 04:17:41;;;;;;;11.60;2.75;;;6.20;99.90;;;;;;4999437;28;20367;-67
2023/04/26 04:20:08;;;;;;;13.38;2.85;;;6.20;99.90;;;;;;4999999;28;20033;-66
2023/04/26 04:22:33;;;;;;;7.70;2.97;;;6.30;99.90;;;;;;5017524;28;20105;-66
2023/04/26 04:24:59;;;;;;;12.48;3.00;;;6.30;99.90;;;;;;5017177;28;20437;-66
2023/04/26 04:27:28;;;;;;;5.63;2.72;;;6.20;99.90;;;;;;5016581;28;20026;-66
2023/04/26 04:29:54;;;;;;;8.48;2.95;;;6.30;99.90;;;;;;4999286;28;20564;-66
2023/04/26 04:32:22;;;;;;;9.88;3.10;;;6.30;99.90;;;;;;4999184;28;20121;-67
2023/04/26 04:34:47;;;;;;;11.15;3.00;;;6.30;99.90;;;;;;5016984;28;20022;-66
2023/04/26 04:37:14;;;;;;;11.88;3.13;;;6.40;99.90;;;;;;4999099;28;20022;-66
2023/04/26 04:39:40;;;;;;;8.55;2.90;;;6.30;99.90;;;;;;5016501;28;20036;-66
2023/04/26 04:42:06;;;;;;;12.13;3.78;;;6.30;99.90;;;;;;4998991;28;20469;-67
2023/04/26 04:44:31;;;;;;;10.02;3.53;;;6.30;99.90;;;;;;5016351;28;20036;-66
2023/04/26 04:46:57;;;;;;;6.05;2.90;;;6.30;99.90;;;;;;4998776;28;20025;-67
2023/04/26 04:49:26;;;;;;;8.00;2.85;;;6.30;99.90;;;;;;5017000;28;20377;-67
2023/04/26 04:51:51;;;;;;;9.48;3.08;;;6.30;99.90;;;;;;5015330;28;20481;-68
2023/04/26 04:54:18;;;;;;;10.07;3.33;;;6.40;99.90;;;;;;5016364;28;20040;-67
2023/04/26 04:56:44;;;;;;;7.22;3.72;;;6.40;99.90;;;;;;4998701;28;20539;-67
2023/04/26 04:59:10;;;;;;;6.30;3.08;;;6.40;99.90;;;;;;5016314;28;20061;-67
2023/04/26 05:01:42;;;;;;;10.07;3.00;;;6.60;99.90;;;;;;5015974;28;20035;-67
2023/04/26 05:04:07;;;;;;;5.85;3.05;;;6.50;99.90;;;;;;5016483;28;20129;-67
2023/04/26 05:06:33;;;;;;;9.02;2.97;;;6.60;99.90;;;;;;5016185;28;20022;-67
2023/04/26 05:09:00;;;;;;;6.40;3.10;;;6.60;99.90;;;;;;4998590;28;20466;-67
2023/04/26 05:11:26;;;;;;;5.55;3.00;;;6.70;99.90;;;;;;5016112;28;20036;-67
2023/04/26 05:13:51;;;;;;;7.43;3.20;;;6.70;99.90;;;;;;5015769;28;20030;-67
2023/04/26 05:16:17;;;;;;;7.50;2.50;;;6.80;99.90;;;;;;5016299;28;20034;-67
2023/04/26 05:18:43;;;;;;;5.63;2.75;;;6.90;99.90;;;;;;5015868;28;20080;-66
2023/04/26 05:21:08;;;;;;;7.63;2.72;;;6.90;99.90;;;;;;5015485;28;20030;-67
2023/04/26 05:23:34;;;;;;;4.53;2.97;;;6.90;99.90;;;;;;4998361;28;20034;-67
2023/04/26 05:26:03;;;;;;;6.68;3.15;;;7.00;99.90;;;;;;4998142;28;20057;-66
2023/04/26 05:28:29;;;;;;;4.15;2.30;;;7.10;99.90;;;;;;5015786;28;20029;-67
2023/04/26 05:30:55;;;;;;;9.15;3.10;;;7.10;99.90;;;;;;5015748;28;20038;-67
2023/04/26 05:33:21;;;;;;;7.68;2.50;;;7.10;99.90;;;;;;5015622;28;20458;-67
2023/04/26 05:35:47;;;;;;;4.13;2.17;;;7.20;99.90;;;;;;4998012;28;20025;-66
2023/04/26 05:38:13;;;;;;;4.43;2.50;;;7.30;99.90;;;;;;5015628;28;20022;-67
2023/04/26 05:40:38;;;;;;;8.02;3.08;;;7.30;99.90;;;;;;5015430;28;20033;-67
2023/04/26 05:43:04;;;;;;;6.32;2.38;;;7.40;99.90;;;;;;5015589;28;20033;-67
2023/04/26 05:45:30;;;;;;;7.40;2.42;;;7.50;99.90;;;;;;5015898;28;20480;-68
2023/04/26 05:47:55;;;;;;;7.55;2.60;;;7.50;99.90;;;;;;5015084;28;20025;-67
2023/04/26 05:50:21;;;;;;;9.00;2.78;;;7.60;99.90;;;;;;5015342;28;20056;-67
2023/04/26 05:52:47;;;;;;;7.22;2.95;;;7.80;99.90;;;;;;5015281;28;20026;-67
2023/04/26 05:55:12;;;;;;;5.82;2.75;;;7.80;99.90;;;;;;5015870;28;20041;-67
2023/04/26 05:57:38;;;;;;;7.93;2.42;;;7.90;99.90;;;;;;4997615;28;20029;-66
2023/04/26 06:00:05;;;;;;;4.10;1.95;;;8.00;99.90;;;;;;5015281;28;20480;-66
2023/04/26 06:02:30;;;;;;;7.22;2.60;;;8.30;99.90;;;;;;5014367;28;20033;-67
2023/04/26 06:04:56;;;;;;;5.15;2.17;;;8.70;99.90;;;;;;4997319;28;20029;-67
2023/04/26 06:07:22;;;;;;;6.95;2.75;;;9.00;99.90;;;;;;5015563;28;20513;-67
2023/04/26 06:09:47;;;;;;;8.02;2.50;;;9.20;99.90;;;;;;4997044;28;20033;-67
2023/04/26 06:12:13;;;;;;;7.50;2.42;;;9.50;99.70;;;;;;5014723;28;20028;-67
2023/04/26 06:14:39;;;;;;;7.82;2.47;;;9.70;98.60;;;;;;5015084;28;20026;-67
2023/04/26 06:17:05;;;;;;;7.05;3.35;;;10.00;97.60;;;;;;5014796;28;20030;-67
2023/04/26 06:19:30;;;;;;;4.25;2.05;;;10.20;97.10;;;;;;5014738;28;20485;-67
2023/04/26 06:21:56;;;;;;;8.70;2.22;;;10.60;96.00;;;;;;4997069;28;20034;-67
2023/04/26 06:24:25;;;;;;;5.40;2.70;;;10.80;93.00;;;;;;5015162;28;20445;-67
2023/04/26 06:26:50;;;;;;;4.30;2.35;;;10.50;93.40;;;;;;5014712;28;20082;-67
2023/04/26 06:29:16;;;;;;;7.97;2.65;;;10.40;92.90;;;;;;4997026;28;20140;-67
2023/04/26 06:31:42;;;;;;;4.38;2.20;;;10.70;93.00;;;;;;5014870;28;20031;-67
2023/04/26 06:34:08;;;;;;;5.60;2.83;;;10.70;92.30;;;;;;4996910;28;20026;-67
2023/04/26 06:36:34;;;;;;;7.20;2.50;;;10.70;91.90;;;;;;5014720;28;20048;-67
2023/04/26 06:39:00;;;;;;;4.32;2.22;;;10.80;92.00;;;;;;4997064;28;20116;-67
2023/04/26 06:41:25;;;;;;;9.80;2.17;;;10.90;91.50;;;;;;4996744;28;20470;-67
2023/04/26 06:43:51;;;;;;;4.55;2.65;;;11.00;91.60;;;;;;5014483;28;20041;-67
2023/04/26 06:46:18;;;;;;;7.10;2.42;;;10.80;91.30;;;;;;5014757;28;20058;-67
2023/04/26 06:48:43;;;;;;;6.93;2.58;;;10.60;90.80;;;;;;5014369;28;20508;-67
2023/04/26 06:51:09;;;;;;;8.88;2.13;;;10.60;91.40;;;;;;5014323;28;20037;-67
2023/04/26 06:53:35;;;;;;;9.52;2.55;;;10.80;90.60;;;;;;4996706;28;20377;-67
2023/04/26 06:56:01;;;;;;;5.97;2.35;;;10.90;90.00;;;;;;5014313;28;20108;-67
2023/04/26 06:58:27;;;;;;;7.95;1.80;;;11.10;90.40;;;;;;5014333;28;20416;-67
2023/04/26 07:00:52;;;;;;;7.47;2.17;;;11.30;90.30;;;;;;4997061;28;20532;-67
2023/04/26 07:03:18;;;;;;;5.80;2.15;;;11.20;87.80;;;;;;4996573;28;20030;-67
2023/04/26 07:05:44;;;;;;;4.13;1.90;;;10.90;87.60;;;;;;4996546;28;20033;-67
2023/04/26 07:08:09;;;;;;;3.63;1.67;;;10.60;89.40;;;;;;5014152;28;20028;-67
2023/04/26 07:10:35;;;;;;;7.78;2.30;;;10.60;88.80;;;;;;5014455;28;20088;-67
2023/04/26 07:13:00;;;;;;;4.40;2.08;;;10.80;89.70;;;;;;5014063;28;20466;-68
2023/04/26 07:15:27;;;;;;;9.43;2.72;;;10.70;89.90;;;;;;4996151;28;20033;-67
2023/04/26 07:17:53;;;;;;;6.28;1.90;;;10.80;89.40;;;;;;5014286;28;20022;-67
2023/04/26 07:20:20;;;;;;;4.85;2.05;;;10.90;89.80;;;;;;5013913;28;20038;-67
2023/04/26 07:22:46;;;;;;;7.20;2.13;;;11.10;90.10;;;;;;5014104;28;20030;-67
2023/04/26 07:25:12;;;;;;;2.72;1.80;;;11.30;90.10;;;;;;4996315;28;20026;-67
2023/04/26 07:27:37;;;;;;;4.50;2.28;;;11.50;87.90;;;;;;5014188;28;20030;-67
2023/04/26 07:30:04;;;;;;;5.38;1.92;;;11.50;86.30;;;;;;5013614;28;20148;-67
2023/04/26 07:32:30;;;;;;;8.90;2.60;;;11.40;87.50;;;;;;5014397;28;20080;-67
2023/04/26 07:34:56;;;;;;;5.75;2.00;;;11.30;85.80;;;;;;5014630;28;20409;-67
2023/04/26 07:37:22;;;;;;;9.05;2.65;;;11.00;85.00;;;;;;5013941;28;20404;-67
2023/04/26 07:39:47;;;;;;;8.68;2.35;;;10.90;87.20;;;;;;5013710;28;20033;-67
2023/04/26 07:42:13;;;;;;;8.00;2.53;;;11.00;85.90;;;;;;5013884;28;20041;-67
2023/04/26 07:44:39;;;;;;;5.13;2.30;;;11.30;86.00;;;;;;5013336;28;20557;-67
2023/04/26 07:47:11;;;;;;;3.17;1.85;;;11.40;82.40;;;;;;4996128;28;20477;-67
2023/04/26 07:49:37;;;;;;;5.55;2.17;;;11.30;81.50;;;;;;4996860;28;20125;-67
2023/04/26 07:52:02;;;;;;;3.05;1.50;;;11.60;79.50;;;;;;5013744;28;20500;-67
2023/04/26 07:54:28;;;;;;;9.13;1.92;;;12.10;81.40;;;;;;4996012;28;20026;-67
2023/04/26 07:56:54;;;;;;;5.90;1.73;;;12.80;75.70;;;;;;4996017;28;20026;-67
2023/04/26 07:59:19;;;;;;;5.00;1.88;;;12.90;72.60;;;;;;5013487;28;20033;-67
2023/04/26 08:01:45;;;;;;;3.50;1.75;;;12.40;72.10;;;;;;4996049;28;20030;-67
2023/04/26 08:04:11;;;;;;;6.53;1.58;;;11.80;72.50;;;;;;4996047;28;20034;-67
2023/04/26 08:06:37;;;;;;;6.43;2.28;;;11.20;75.30;;;;;;4995967;28;20030;-67
2023/04/26 08:09:04;;;;;;;6.35;2.03;;;11.00;76.60;;;;;;4995976;28;20033;-67
2023/04/26 08:11:29;;;;;;;6.45;2.00;;;10.90;77.90;;;;;;4996645;28;20034;-68
2023/04/26 08:13:55;;;;;;;5.63;2.13;;;10.80;78.10;;;;;;4995882;28;20480;-67
2023/04/26 08:16:21;;;;;;;4.03;1.92;;;10.60;78.70;;;;;;5013475;28;20026;-67
2023/04/26 08:18:46;;;;;;;3.13;1.33;;;10.90;79.60;;;;;;5013464;28;20516;-67
2023/04/26 08:21:12;;;;;;;6.88;2.08;;;11.20;78.50;;;;;;5013116;28;20076;-68
2023/04/26 08:23:38;;;;;;;6.25;1.90;;;11.40;77.40;;;;;;5013177;28;20038;-68
2023/04/26 08:26:05;;;;;;;6.10;1.65;;;11.50;76.40;;;;;;5014653;28;20049;-67
2023/04/26 08:28:30;;;;;;;3.85;1.83;;;11.90;75.10;;;;;;5017771;28;20026;-68
2023/04/26 08:30:57;;;;;;;4.57;1.58;;;12.40;72.80;;;;;;5017574;28;20386;-68
2023/04/26 08:33:22;;;;;;;4.07;1.23;;;12.30;69.80;;;;;;5017098;28;20497;-68
2023/04/26 08:35:48;;;;;;;5.47;1.40;;;12.10;70.10;;;;;;4998820;28;20034;-68
2023/04/26 08:38:14;;;;;;;3.72;1.70;;;12.40;69.60;;;;;;4999090;28;20033;-67
2023/04/26 08:40:42;;;;;;;7.18;2.03;;;12.50;68.30;;;;;;5016774;28;20034;-67
2023/04/26 08:43:09;;;;;;;7.93;2.63;;;12.90;68.90;;;;;;4998966;28;20030;-67
2023/04/26 08:45:37;;;;;;;4.47;1.77;;;13.20;68.40;;;;;;5016343;28;20612;-67
2023/04/26 08:48:06;;;;;;;3.55;1.60;;;13.30;63.90;;;;;;5016136;28;20057;-67
2023/04/26 08:50:33;;;;;;;4.68;1.85;;;12.70;65.10;;;;;;4999129;28;20030;-67
2023/04/26 08:52:58;;;;;;;6.13;1.73;;;12.40;66.00;;;;;;5016371;28;20484;-67
2023/04/26 08:55:25;;;;;;;5.93;1.50;;;11.70;67.80;;;;;;5016688;28;20034;-68
2023/04/26 08:57:51;;;;;;;4.95;1.27;;;11.50;69.60;;;;;;5016564;28;20037;-68
2023/04/26 09:00:18;;;;;;;1.45;1.35;;;11.50;69.60;;;;;;5016186;28;20385;-67
2023/04/26 09:02:51;;;;;;;5.22;1.75;;;11.80;71.00;;;;;;4998658;28;20034;-67
2023/04/26 09:05:22;;;;;;;7.38;1.70;;;12.30;71.40;;;;;;5016493;28;20029;-67
2023/04/26 09:07:49;;;;;;;7.13;1.92;;;12.50;67.70;;;;;;5016305;28;20117;-68
2023/04/26 09:10:20;;;;;;;3.78;1.63;;;12.70;66.40;;;;;;5015828;28;20041;-68
2023/04/26 09:12:46;;;;;;;1.70;1.30;;;12.50;66.60;;;;;;4998593;28;20382;-67
2023/04/26 09:15:14;;;;;;;10.23;1.88;;;12.10;65.50;;;;;;5015756;28;20045;-67
2023/04/26 09:17:40;;;;;;;5.65;2.10;;;12.00;66.20;;;;;;4998377;28;20410;-68
2023/04/26 09:20:29;;;;;;;5.65;1.63;;;12.20;65.70;;;;;;4998241;28;20030;-68
2023/04/26 09:23:06;;;;;;;4.78;1.83;;;11.90;66.40;;;;;;4998455;28;20554;-68
2023/04/26 09:25:33;;;;;;;5.55;1.00;;;11.70;66.00;;;;;;5016031;28;20032;-67
2023/04/26 09:27:59;;;;;;;4.05;1.55;;;11.30;63.60;;;;;;5015833;28;20057;-67
2023/04/26 09:30:26;;;;;;;4.20;1.33;;;11.00;65.20;;;;;;4998169;28;20030;-67
2023/04/26 09:32:53;;;;;;;8.15;1.40;;;11.20;67.30;;;;;;5015634;28;20076;-68
2023/04/26 09:35:40;;;;;;;1.77;1.00;;;12.10;65.20;;;;;;5015594;28;20112;-67
2023/04/26 09:38:15;;;;;;;6.65;1.70;;;13.20;63.80;;;;;;5015344;28;20034;-67
2023/04/26 09:40:46;;;;;;;4.45;1.50;;;14.10;58.70;;;;;;5015139;28;20056;-67
2023/04/26 09:43:20;;;;;;;2.55;1.50;;;13.70;57.10;;;;;;5015440;28;20095;-68
2023/04/26 09:45:48;;;;;;;11.65;2.80;;;13.40;57.30;;;;;;5016006;28;20046;-67
2023/04/26 09:48:15;;;;;;;3.30;1.17;;;13.80;58.10;;;;;;5015417;28;20029;-67
2023/04/26 09:50:43;;;;;;;5.63;1.27;;;14.00;57.00;;;;;;4998005;28;20038;-67
2023/04/26 09:53:09;;;;;;;3.50;1.00;;;13.30;56.90;;;;;;5015360;28;20377;-68
2023/04/26 09:55:35;;;;;;;4.68;1.52;;;12.50;57.80;;;;;;5015226;28;20176;-67
2023/04/26 09:58:09;;;;;;;2.85;1.02;;;12.60;59.70;;;;;;4997678;28;20026;-67
2023/04/26 10:00:37;;;;;;;3.42;1.20;;;13.80;54.70;;;;;;4997739;28;20066;-67
2023/04/26 10:03:04;;;;;;;2.03;0.60;;;14.60;51.00;;;;;;5015151;28;20033;-67
2023/04/26 10:05:31;;;;;;;2.78;0.88;;;15.20;50.50;;;;;;5014936;28;20105;-67
2023/04/26 10:07:57;;;;;;;3.13;0.95;;;16.20;48.00;;;;;;5014769;28;20470;-67
2023/04/26 10:10:22;;;;;;;5.05;1.42;;;16.90;46.40;;;;;;5015196;28;20036;-67
2023/04/26 10:12:48;;;;;;;8.63;1.52;;;16.40;44.60;;;;;;5014943;28;20120;-67
2023/04/26 10:15:14;;;;;;;2.38;1.10;;;15.80;45.70;;;;;;5014878;28;20104;-68
2023/04/26 10:17:40;;;;;;;5.03;1.10;;;15.40;45.70;;;;;;5015034;28;20114;-67
2023/04/26 10:20:11;;;;;;;2.33;1.00;;;15.50;46.50;;;;;;4996957;28;20165;-67
2023/04/26 10:22:44;;;;;;;3.92;1.58;;;16.10;46.80;;;;;;5014485;28;20488;-67
2023/04/26 10:25:10;;;;;;;2.58;1.00;;;16.20;45.50;;;;;;5014753;28;20037;-67
2023/04/26 10:27:45;;;;;;;2.67;1.10;;;15.30;46.20;;;;;;4996723;28;20034;-68
2023/04/26 10:30:19;;;;;;;4.53;1.40;;;14.20;46.30;;;;;;5014654;28;20065;-67
2023/04/26 10:32:56;;;;;;;2.60;1.50;;;13.70;47.70;;;;;;4997246;28;20065;-67
2023/04/26 10:35:32;;;;;;;5.38;1.15;;;13.60;49.50;;;;;;4997018;28;20030;-67
2023/04/26 10:38:00;;;;;;;4.95;1.30;;;14.00;49.50;;;;;;4996913;28;20469;-68
2023/04/26 10:40:31;;;;;;;3.35;1.38;;;14.60;47.80;;;;;;5014545;28;20033;-67
2023/04/26 10:43:13;;;;;;;3.78;1.48;;;15.10;47.30;;;;;;4996760;28;20040;-67
2023/04/26 10:45:40;;;;;;;3.42;1.08;;;15.70;46.30;;;;;;5014056;28;20054;-68
2023/04/26 10:48:16;;;;;;;6.28;1.20;;;15.70;46.80;;;;;;4996686;28;20072;-67
2023/04/26 10:51:00;;;;;;;4.03;1.15;;;15.20;46.20;;;;;;4996379;28;20045;-67
2023/04/26 10:53:46;;;;;;;5.57;1.33;;;14.50;48.00;;;;;;4996725;28;20033;-68
2023/04/26 10:56:27;;;;;;;3.42;1.92;;;14.00;49.50;;;;;;5003414;28;20042;-67
2023/04/26 10:59:10;;;;;;;1.67;1.05;;;14.80;49.50;;;;;;4996529;28;20031;-67
2023/04/26 11:01:36;;;;;;;3.28;1.30;;;15.20;48.90;;;;;;5014584;28;20038;-67
2023/04/26 11:04:10;;;;;;;4.65;1.45;;;15.60;47.80;;;;;;4997027;28;20030;-67
2023/04/26 11:06:56;;;;;;;7.93;1.80;;;15.90;46.30;;;;;;5014357;28;20026;-67
2023/04/26 11:09:38;;;;;;;2.88;1.58;;;15.60;46.00;;;;;;5014053;28;20026;-68
2023/04/26 11:12:04;;;;;;;2.90;1.05;;;15.40;46.80;;;;;;4996492;28;20030;-67
2023/04/26 11:14:31;;;;;;;2.38;1.10;;;15.10;48.00;;;;;;5014288;28;20033;-68
2023/04/26 11:16:57;;;;;;;3.40;1.08;;;16.20;46.10;;;;;;4996044;28;20037;-68
2023/04/26 11:19:23;;;;;;;6.20;1.20;;;16.60;46.50;;;;;;5014157;28;20030;-67
2023/04/26 11:21:49;;;;;;;3.38;1.23;;;17.00;46.50;;;;;;5013847;28;20041;-68
2023/04/26 11:24:15;;;;;;;2.67;1.15;;;17.60;44.10;;;;;;4996330;28;20099;-67
2023/04/26 11:26:40;;;;;;;4.47;1.38;;;16.10;44.70;;;;;;4996330;28;20458;-67
2023/04/26 11:29:12;;;;;;;4.63;1.10;;;16.10;46.70;;;;;;5013913;28;20018;-67
2023/04/26 11:31:37;;;;;;;2.60;0.85;;;17.00;43.80;;;;;;4996583;28;20168;-67
2023/04/26 11:34:04;;;;;;;5.57;1.15;;;16.80;44.50;;;;;;5013574;28;20054;-67
2023/04/26 11:36:29;;;;;;;2.17;1.20;;;16.90;43.20;;;;;;5013539;28;20026;-67
2023/04/26 11:38:56;;;;;;;3.58;0.90;;;16.60;43.80;;;;;;4979996;28;20540;-67
2023/04/26 11:41:23;;;;;;;5.20;1.20;;;16.20;44.70;;;;;;5013761;28;20405;-67
2023/04/26 11:43:49;;;;;;;3.17;1.27;;;16.00;46.30;;;;;;5013716;28;20022;-67
2023/04/26 11:46:15;;;;;;;3.15;1.00;;;16.40;45.80;;;;;;4995955;28;20046;-68
2023/04/26 11:48:41;;;;;;;3.83;1.27;;;15.80;45.50;;;;;;5013707;28;20029;-67
2023/04/26 11:51:07;;;;;;;2.58;0.82;;;14.80;46.10;;;;;;4996066;28;20057;-68
2023/04/26 11:53:43;;;;;;;1.67;0.88;;;14.10;47.90;;;;;;4996798;28;20057;-67
2023/04/26 11:56:16;;;;;;;4.95;1.60;;;13.60;49.30;;;;;;5014162;28;20077;-68
2023/04/26 11:58:45;;;;;;;4.05;1.30;;;13.50;49.50;;;;;;5013730;28;20057;-67
2023/04/26 12:01:11;;;;;;;9.88;1.25;;;14.30;50.30;;;;;;5016146;28;20114;-64
2023/04/26 12:03:36;;;;;;;2.78;0.93;;;15.90;49.60;;;;;;5017323;28;20069;-65
2023/04/26 12:06:05;;;;;;;3.17;0.85;;;16.60;45.10;;;;;;4999410;28;20112;-65
2023/04/26 12:08:31;;;;;;;;;;;17.50;44.60;;;;;;5017615;28;20032;-68
2023/04/26 12:11:03;;;;;;;4.53;0.70;;;17.10;42.10;;;;;;5017318;28;19909;-68
2023/04/26 12:13:29;;;;;;;1.42;0.73;;;17.10;42.60;;;;;;4999513;28;20026;-68
2023/04/26 12:15:55;;;;;;;3.25;0.95;;;16.60;43.90;;;;;;4999520;28;20029;-68
2023/04/26 12:18:22;;;;;;;2.38;0.95;;;16.80;43.00;;;;;;4999506;28;20036;-68
2023/04/26 12:20:48;;;;;;;3.15;0.90;;;16.50;42.20;;;;;;5016925;28;20033;-68
2023/04/26 12:23:15;;;;;;;2.72;1.02;;;16.30;43.20;;;;;;5017003;28;20033;-68
2023/04/26 12:25:55;;;;;;;1.73;0.70;;;16.30;43.20;;;;;;5016939;28;20033;-68
2023/04/26 12:28:21;;;;;;;3.00;0.90;;;15.50;45.50;;;;;;5017044;28;20030;-68
2023/04/26 12:30:48;;;;;;;4.53;1.42;;;14.70;46.10;;;;;;5016862;28;20196;-68
2023/04/26 12:33:15;;;;;;;5.10;1.10;;;14.10;47.40;;;;;;5016836;28;20030;-68
2023/04/26 12:35:40;;;;;;;4.45;0.98;;;14.60;47.60;;;;;;5016500;28;20043;-68
2023/04/26 12:38:06;;;;;;;2.15;0.70;;;15.10;46.40;;;;;;5016583;28;20116;-68
2023/04/26 12:40:32;;;;;;;4.10;1.17;;;15.80;46.30;;;;;;4998871;28;20033;-67
2023/04/26 12:42:58;;;;;;;3.67;1.48;;;16.00;44.60;;;;;;4999049;28;20041;-68
2023/04/26 12:45:25;;;;;;;3.80;1.48;;;15.40;46.10;;;;;;4998626;28;20088;-68
2023/04/26 12:47:53;;;;;;;6.63;0.85;;;15.20;46.50;;;;;;4998754;28;20080;-68
2023/04/26 12:50:19;;;;;;;1.55;0.77;;;14.70;46.70;;;;;;4998821;28;20033;-68
2023/04/26 12:52:45;;;;;;;2.42;0.93;;;14.20;46.80;;;;;;4999379;28;20473;-68